PR AS 187 Ruta de valdolayés 2020-07-12.gpx<?xml version="1.0" encoding="UTF-8" standalone="no" ?>
<gpx xmlns="http://www.topografix.com/GPX/1/1" xmlns:gpxtpx="http://www.garmin.com/xmlschemas/TrackPointExtension/v1" creator="Mapas de España v.1.1.0" version="1.1" xmlns:xsi="http://www.w3.org/2001/XMLSchema-instance" xsi:schemaLocation="http://www.topografix.com/GPX/1/1 http://www.topografix.com/GPX/1/1/gpx.xsd">
<metadata>
<name><![CDATA[2020-07-12 12:01]]></name>
<link href="https://www.oruxmaps.com">
<text>Mapas de España</text>
</link>
<time>2020-07-12T10:01:30.867Z</time><bounds maxlat="43.2820919" maxlon="-5.9671911" minlat="43.2630089" minlon="-5.9941283"/>
</metadata>
<wpt lat="43.2744808" lon="-5.9941283">
<ele>195.36</ele>
<time>2020-07-12T10:01:31.639Z</time>
<name><![CDATA[0000086]]></name>
<sym>Waypoint</sym>
<type>Comienzo</type>
<extensions>
<om:oruxmapsextensions xmlns:om="http://www.oruxmaps.com/oruxmapsextensions/1/0">
<om:ext type="ICON" subtype="0">38</om:ext>
</om:oruxmapsextensions>
</extensions>
</wpt>
<wpt lat="43.2746177" lon="-5.9939791">
<ele>190.34</ele>
<time>2020-07-12T12:26:58.964Z</time>
<name><![CDATA[0000087]]></name>
<desc><![CDATA[<p><br /><h3>Nombre: Segmento: 1</h3><br />Hora Inicio: 12:01 12 jul. 2020<br/>Hora Fin: 14:26 12 jul. 2020<br/>Distancia recorrida: 8,8km (02:25)<br/>Tiempo en movimiento: 02:03<br/>Velocidad media: 3,63 km/h<br/>Vel. en Mov.: 4,27 km/h<br/>Velocidad Máxima: 9,63 km/h<br/>Altura Mínima: 185 m<br/>Altura Máxima: 641 m<br/>Velocidad Ascenso: 492,5 m/h<br/>Velocidad Descenso: -410,1 m/h<br/>Ganancia Altitud: 540 m<br/>Pérdida Altitud: -540 m<br/>Tiempo Ascenso: 01:05<br/>Tiempo Descenso: 01:19<br/></p>]]></desc>
<sym>Waypoint</sym>
<type>Final</type>
<extensions>
<om:oruxmapsextensions xmlns:om="http://www.oruxmaps.com/oruxmapsextensions/1/0">
<om:ext type="ICON" subtype="0">15</om:ext>
</om:oruxmapsextensions>
</extensions>
</wpt>
<trk>
<name><![CDATA[2020-07-12 12:01]]></name>
<desc><![CDATA[<p>Hora Inicio: 12:01 12 jul. 2020<br/>Hora Fin: 14:26 12 jul. 2020<br/>Distancia recorrida: 8,8 km (02:25)<br/>Tiempo en movimiento: 02:03<br/>Velocidad media: 3,63 km/h<br/>Vel. en Mov.: 4,27 km/h<br/>Velocidad Máxima: 9,63 km/h<br/>Altura Mínima: 185 m<br/>Altura Máxima: 641 m<br/>Velocidad Ascenso: 415,8 m/h<br/>Velocidad Descenso: -465,2 m/h<br/>Ganancia Altitud: 528 m<br/>Pérdida Altitud: -525 m<br/>Tiempo Ascenso: 01:16<br/>Tiempo Descenso: 01:07<br/></p><hr align="center" width="480" style="height: 2px; width: 517px"/>]]></desc>
<type>Indefinido</type>
<extensions>
<om:oruxmapsextensions xmlns:om="http://www.oruxmaps.com/oruxmapsextensions/1/0">
<om:ext type="TYPE" subtype="0">0</om:ext>
<om:ext type="DIFFICULTY">0</om:ext>
</om:oruxmapsextensions>
</extensions>
<trkseg>
<trkpt lat="43.2744808" lon="-5.9941283">
<ele>195.36</ele>
<time>2020-07-12T10:01:34.000Z</time>
</trkpt>
<trkpt lat="43.2745956" lon="-5.9939378">
<ele>185.96</ele>
<time>2020-07-12T10:01:50.000Z</time>
</trkpt>
<trkpt lat="43.2747451" lon="-5.9937824">
<ele>189.95</ele>
<time>2020-07-12T10:02:10.000Z</time>
</trkpt>
<trkpt lat="43.2748756" lon="-5.9935968">
<ele>207.52</ele>
<time>2020-07-12T10:02:45.000Z</time>
</trkpt>
<trkpt lat="43.2750061" lon="-5.9934126">
<ele>205.25</ele>
<time>2020-07-12T10:03:01.000Z</time>
</trkpt>
<trkpt lat="43.2751777" lon="-5.9933041">
<ele>209.22</ele>
<time>2020-07-12T10:03:19.000Z</time>
</trkpt>
<trkpt lat="43.2752943" lon="-5.9931138">
<ele>213.46</ele>
<time>2020-07-12T10:03:39.000Z</time>
</trkpt>
<trkpt lat="43.2754077" lon="-5.9929109">
<ele>215.23</ele>
<time>2020-07-12T10:03:57.000Z</time>
</trkpt>
<trkpt lat="43.2755341" lon="-5.9927302">
<ele>216.92</ele>
<time>2020-07-12T10:04:15.000Z</time>
</trkpt>
<trkpt lat="43.2756528" lon="-5.9925444">
<ele>217.25</ele>
<time>2020-07-12T10:04:33.000Z</time>
</trkpt>
<trkpt lat="43.2757960" lon="-5.9923927">
<ele>219.95</ele>
<time>2020-07-12T10:04:53.000Z</time>
</trkpt>
<trkpt lat="43.2759392" lon="-5.9922221">
<ele>222.94</ele>
<time>2020-07-12T10:05:12.000Z</time>
</trkpt>
<trkpt lat="43.2760506" lon="-5.9920269">
<ele>229.15</ele>
<time>2020-07-12T10:05:32.000Z</time>
</trkpt>
<trkpt lat="43.2761615" lon="-5.9918185">
<ele>233.24</ele>
<time>2020-07-12T10:05:57.000Z</time>
</trkpt>
<trkpt lat="43.2762536" lon="-5.9916037">
<ele>236.25</ele>
<time>2020-07-12T10:06:16.000Z</time>
</trkpt>
<trkpt lat="43.2763347" lon="-5.9913755">
<ele>238.27</ele>
<time>2020-07-12T10:06:33.000Z</time>
</trkpt>
<trkpt lat="43.2764277" lon="-5.9911616">
<ele>242.95</ele>
<time>2020-07-12T10:06:52.000Z</time>
</trkpt>
<trkpt lat="43.2765487" lon="-5.9909692">
<ele>246.25</ele>
<time>2020-07-12T10:07:09.000Z</time>
</trkpt>
<trkpt lat="43.2766564" lon="-5.9907681">
<ele>249.25</ele>
<time>2020-07-12T10:07:25.000Z</time>
</trkpt>
<trkpt lat="43.2764716" lon="-5.9908148">
<ele>246.25</ele>
<time>2020-07-12T10:08:14.000Z</time>
</trkpt>
<trkpt lat="43.2763084" lon="-5.9909398">
<ele>249.24</ele>
<time>2020-07-12T10:08:31.000Z</time>
</trkpt>
<trkpt lat="43.2761866" lon="-5.9911329">
<ele>251.22</ele>
<time>2020-07-12T10:08:51.000Z</time>
</trkpt>
<trkpt lat="43.2760508" lon="-5.9913033">
<ele>252.31</ele>
<time>2020-07-12T10:09:07.000Z</time>
</trkpt>
<trkpt lat="43.2759287" lon="-5.9914890">
<ele>255.16</ele>
<time>2020-07-12T10:09:25.000Z</time>
</trkpt>
<trkpt lat="43.2757974" lon="-5.9916707">
<ele>257.25</ele>
<time>2020-07-12T10:09:43.000Z</time>
</trkpt>
<trkpt lat="43.2756310" lon="-5.9918002">
<ele>259.16</ele>
<time>2020-07-12T10:10:02.000Z</time>
</trkpt>
<trkpt lat="43.2754604" lon="-5.9918896">
<ele>266.24</ele>
<time>2020-07-12T10:10:22.000Z</time>
</trkpt>
<trkpt lat="43.2752936" lon="-5.9919928">
<ele>269.16</ele>
<time>2020-07-12T10:10:39.000Z</time>
</trkpt>
<trkpt lat="43.2751350" lon="-5.9921178">
<ele>273.94</ele>
<time>2020-07-12T10:10:58.000Z</time>
</trkpt>
<trkpt lat="43.2749939" lon="-5.9922724">
<ele>277.16</ele>
<time>2020-07-12T10:11:14.000Z</time>
</trkpt>
<trkpt lat="43.2748151" lon="-5.9923429">
<ele>279.31</ele>
<time>2020-07-12T10:11:32.000Z</time>
</trkpt>
<trkpt lat="43.2746554" lon="-5.9922263">
<ele>277.26</ele>
<time>2020-07-12T10:11:49.000Z</time>
</trkpt>
<trkpt lat="43.2746133" lon="-5.9919782">
<ele>280.95</ele>
<time>2020-07-12T10:12:07.000Z</time>
</trkpt>
<trkpt lat="43.2744832" lon="-5.9917987">
<ele>285.16</ele>
<time>2020-07-12T10:12:30.000Z</time>
</trkpt>
<trkpt lat="43.2743033" lon="-5.9916932">
<ele>288.30</ele>
<time>2020-07-12T10:12:51.000Z</time>
</trkpt>
<trkpt lat="43.2742807" lon="-5.9914395">
<ele>288.16</ele>
<time>2020-07-12T10:13:11.000Z</time>
</trkpt>
<trkpt lat="43.2742780" lon="-5.9911849">
<ele>291.25</ele>
<time>2020-07-12T10:13:30.000Z</time>
</trkpt>
<trkpt lat="43.2741028" lon="-5.9911090">
<ele>298.85</ele>
<time>2020-07-12T10:13:59.000Z</time>
</trkpt>
<trkpt lat="43.2739478" lon="-5.9912613">
<ele>306.92</ele>
<time>2020-07-12T10:14:12.000Z</time>
</trkpt>
<trkpt lat="43.2738295" lon="-5.9910685">
<ele>304.67</ele>
<time>2020-07-12T10:14:23.000Z</time>
</trkpt>
<trkpt lat="43.2738387" lon="-5.9908200">
<ele>299.25</ele>
<time>2020-07-12T10:14:37.000Z</time>
</trkpt>
<trkpt lat="43.2738744" lon="-5.9905641">
<ele>301.25</ele>
<time>2020-07-12T10:14:52.000Z</time>
</trkpt>
<trkpt lat="43.2739405" lon="-5.9903163">
<ele>300.25</ele>
<time>2020-07-12T10:15:08.000Z</time>
</trkpt>
<trkpt lat="43.2738773" lon="-5.9900823">
<ele>301.94</ele>
<time>2020-07-12T10:15:23.000Z</time>
</trkpt>
<trkpt lat="43.2736939" lon="-5.9900877">
<ele>309.92</ele>
<time>2020-07-12T10:15:38.000Z</time>
</trkpt>
<trkpt lat="43.2735303" lon="-5.9901907">
<ele>318.15</ele>
<time>2020-07-12T10:15:54.000Z</time>
</trkpt>
<trkpt lat="43.2733603" lon="-5.9903038">
<ele>325.31</ele>
<time>2020-07-12T10:16:09.000Z</time>
</trkpt>
<trkpt lat="43.2732126" lon="-5.9901497">
<ele>325.25</ele>
<time>2020-07-12T10:16:22.000Z</time>
</trkpt>
<trkpt lat="43.2730471" lon="-5.9900382">
<ele>324.25</ele>
<time>2020-07-12T10:16:38.000Z</time>
</trkpt>
<trkpt lat="43.2730764" lon="-5.9897904">
<ele>322.25</ele>
<time>2020-07-12T10:16:56.000Z</time>
</trkpt>
<trkpt lat="43.2731622" lon="-5.9895564">
<ele>321.25</ele>
<time>2020-07-12T10:17:12.000Z</time>
</trkpt>
<trkpt lat="43.2732246" lon="-5.9893140">
<ele>320.55</ele>
<time>2020-07-12T10:17:29.000Z</time>
</trkpt>
<trkpt lat="43.2733701" lon="-5.9891636">
<ele>320.25</ele>
<time>2020-07-12T10:17:45.000Z</time>
</trkpt>
<trkpt lat="43.2734257" lon="-5.9889189">
<ele>323.16</ele>
<time>2020-07-12T10:18:01.000Z</time>
</trkpt>
<trkpt lat="43.2733121" lon="-5.9887194">
<ele>327.94</ele>
<time>2020-07-12T10:18:22.000Z</time>
</trkpt>
<trkpt lat="43.2731405" lon="-5.9886421">
<ele>330.22</ele>
<time>2020-07-12T10:18:35.000Z</time>
</trkpt>
<trkpt lat="43.2730877" lon="-5.9884033">
<ele>332.47</ele>
<time>2020-07-12T10:18:50.000Z</time>
</trkpt>
<trkpt lat="43.2730328" lon="-5.9881672">
<ele>338.24</ele>
<time>2020-07-12T10:19:10.000Z</time>
</trkpt>
<trkpt lat="43.2729144" lon="-5.9879761">
<ele>344.22</ele>
<time>2020-07-12T10:19:28.000Z</time>
</trkpt>
<trkpt lat="43.2727729" lon="-5.9878067">
<ele>347.16</ele>
<time>2020-07-12T10:19:48.000Z</time>
</trkpt>
<trkpt lat="43.2726126" lon="-5.9876947">
<ele>349.25</ele>
<time>2020-07-12T10:20:10.000Z</time>
</trkpt>
<trkpt lat="43.2724343" lon="-5.9876342">
<ele>351.25</ele>
<time>2020-07-12T10:20:27.000Z</time>
</trkpt>
<trkpt lat="43.2722601" lon="-5.9875309">
<ele>353.01</ele>
<time>2020-07-12T10:20:44.000Z</time>
</trkpt>
<trkpt lat="43.2720794" lon="-5.9876011">
<ele>356.95</ele>
<time>2020-07-12T10:21:04.000Z</time>
</trkpt>
<trkpt lat="43.2719018" lon="-5.9876637">
<ele>358.94</ele>
<time>2020-07-12T10:21:22.000Z</time>
</trkpt>
<trkpt lat="43.2717382" lon="-5.9877883">
<ele>361.25</ele>
<time>2020-07-12T10:21:36.000Z</time>
</trkpt>
<trkpt lat="43.2715629" lon="-5.9878598">
<ele>364.24</ele>
<time>2020-07-12T10:21:49.000Z</time>
</trkpt>
<trkpt lat="43.2713955" lon="-5.9879791">
<ele>367.95</ele>
<time>2020-07-12T10:22:06.000Z</time>
</trkpt>
<trkpt lat="43.2712208" lon="-5.9880462">
<ele>369.25</ele>
<time>2020-07-12T10:22:22.000Z</time>
</trkpt>
<trkpt lat="43.2710651" lon="-5.9879119">
<ele>369.25</ele>
<time>2020-07-12T10:22:37.000Z</time>
</trkpt>
<trkpt lat="43.2709302" lon="-5.9877461">
<ele>369.25</ele>
<time>2020-07-12T10:22:54.000Z</time>
</trkpt>
<trkpt lat="43.2707704" lon="-5.9876220">
<ele>370.27</ele>
<time>2020-07-12T10:23:11.000Z</time>
</trkpt>
<trkpt lat="43.2706815" lon="-5.9873953">
<ele>374.25</ele>
<time>2020-07-12T10:23:34.000Z</time>
</trkpt>
<trkpt lat="43.2707393" lon="-5.9871496">
<ele>369.25</ele>
<time>2020-07-12T10:23:54.000Z</time>
</trkpt>
<trkpt lat="43.2707402" lon="-5.9868949">
<ele>370.25</ele>
<time>2020-07-12T10:24:09.000Z</time>
</trkpt>
<trkpt lat="43.2708434" lon="-5.9866648">
<ele>367.22</ele>
<time>2020-07-12T10:24:25.000Z</time>
</trkpt>
<trkpt lat="43.2709626" lon="-5.9864593">
<ele>368.16</ele>
<time>2020-07-12T10:24:42.000Z</time>
</trkpt>
<trkpt lat="43.2710412" lon="-5.9862279">
<ele>370.25</ele>
<time>2020-07-12T10:24:58.000Z</time>
</trkpt>
<trkpt lat="43.2710299" lon="-5.9859737">
<ele>375.15</ele>
<time>2020-07-12T10:25:15.000Z</time>
</trkpt>
<trkpt lat="43.2709803" lon="-5.9857354">
<ele>379.25</ele>
<time>2020-07-12T10:25:29.000Z</time>
</trkpt>
<trkpt lat="43.2708609" lon="-5.9855420">
<ele>387.13</ele>
<time>2020-07-12T10:25:45.000Z</time>
</trkpt>
<trkpt lat="43.2707134" lon="-5.9853719">
<ele>391.25</ele>
<time>2020-07-12T10:26:01.000Z</time>
</trkpt>
<trkpt lat="43.2705764" lon="-5.9852071">
<ele>395.16</ele>
<time>2020-07-12T10:26:14.000Z</time>
</trkpt>
<trkpt lat="43.2704119" lon="-5.9850892">
<ele>398.25</ele>
<time>2020-07-12T10:26:30.000Z</time>
</trkpt>
<trkpt lat="43.2702499" lon="-5.9849644">
<ele>399.16</ele>
<time>2020-07-12T10:26:48.000Z</time>
</trkpt>
<trkpt lat="43.2700844" lon="-5.9848571">
<ele>402.22</ele>
<time>2020-07-12T10:27:03.000Z</time>
</trkpt>
<trkpt lat="43.2699455" lon="-5.9846997">
<ele>404.24</ele>
<time>2020-07-12T10:27:18.000Z</time>
</trkpt>
<trkpt lat="43.2698086" lon="-5.9845343">
<ele>408.22</ele>
<time>2020-07-12T10:27:52.000Z</time>
</trkpt>
<trkpt lat="43.2696977" lon="-5.9843307">
<ele>410.15</ele>
<time>2020-07-12T10:28:08.000Z</time>
</trkpt>
<trkpt lat="43.2695813" lon="-5.9841412">
<ele>410.25</ele>
<time>2020-07-12T10:28:22.000Z</time>
</trkpt>
<trkpt lat="43.2694891" lon="-5.9839195">
<ele>412.25</ele>
<time>2020-07-12T10:28:42.000Z</time>
</trkpt>
<trkpt lat="43.2693075" lon="-5.9838745">
<ele>419.22</ele>
<time>2020-07-12T10:29:06.000Z</time>
</trkpt>
<trkpt lat="43.2691290" lon="-5.9839241">
<ele>423.25</ele>
<time>2020-07-12T10:29:22.000Z</time>
</trkpt>
<trkpt lat="43.2689724" lon="-5.9837894">
<ele>428.15</ele>
<time>2020-07-12T10:29:40.000Z</time>
</trkpt>
<trkpt lat="43.2689138" lon="-5.9835552">
<ele>433.21</ele>
<time>2020-07-12T10:29:57.000Z</time>
</trkpt>
<trkpt lat="43.2688739" lon="-5.9833129">
<ele>437.25</ele>
<time>2020-07-12T10:30:13.000Z</time>
</trkpt>
<trkpt lat="43.2686909" lon="-5.9833489">
<ele>444.39</ele>
<time>2020-07-12T10:30:38.000Z</time>
</trkpt>
<trkpt lat="43.2687024" lon="-5.9831015">
<ele>436.59</ele>
<time>2020-07-12T10:30:47.000Z</time>
</trkpt>
<trkpt lat="43.2685244" lon="-5.9829938">
<ele>433.25</ele>
<time>2020-07-12T10:31:05.000Z</time>
</trkpt>
<trkpt lat="43.2683649" lon="-5.9828598">
<ele>464.13</ele>
<time>2020-07-12T10:32:01.000Z</time>
</trkpt>
<trkpt lat="43.2683327" lon="-5.9826154">
<ele>460.67</ele>
<time>2020-07-12T10:32:08.000Z</time>
</trkpt>
<trkpt lat="43.2683773" lon="-5.9823734">
<ele>453.35</ele>
<time>2020-07-12T10:32:23.000Z</time>
</trkpt>
<trkpt lat="43.2683962" lon="-5.9821225">
<ele>455.25</ele>
<time>2020-07-12T10:32:37.000Z</time>
</trkpt>
<trkpt lat="43.2682281" lon="-5.9820239">
<ele>461.34</ele>
<time>2020-07-12T10:33:04.000Z</time>
</trkpt>
<trkpt lat="43.2682368" lon="-5.9817613">
<ele>455.34</ele>
<time>2020-07-12T10:33:13.000Z</time>
</trkpt>
<trkpt lat="43.2682613" lon="-5.9815092">
<ele>450.26</ele>
<time>2020-07-12T10:33:26.000Z</time>
</trkpt>
<trkpt lat="43.2682271" lon="-5.9812656">
<ele>455.15</ele>
<time>2020-07-12T10:33:46.000Z</time>
</trkpt>
<trkpt lat="43.2680008" lon="-5.9812926">
<ele>454.34</ele>
<time>2020-07-12T10:33:53.000Z</time>
</trkpt>
<trkpt lat="43.2679972" lon="-5.9810428">
<ele>454.16</ele>
<time>2020-07-12T10:34:03.000Z</time>
</trkpt>
<trkpt lat="43.2679233" lon="-5.9808026">
<ele>459.23</ele>
<time>2020-07-12T10:34:31.000Z</time>
</trkpt>
<trkpt lat="43.2677525" lon="-5.9807142">
<ele>461.25</ele>
<time>2020-07-12T10:34:48.000Z</time>
</trkpt>
<trkpt lat="43.2675858" lon="-5.9806097">
<ele>462.25</ele>
<time>2020-07-12T10:35:06.000Z</time>
</trkpt>
<trkpt lat="43.2674688" lon="-5.9804125">
<ele>466.20</ele>
<time>2020-07-12T10:35:22.000Z</time>
</trkpt>
<trkpt lat="43.2673325" lon="-5.9802287">
<ele>468.16</ele>
<time>2020-07-12T10:35:43.000Z</time>
</trkpt>
<trkpt lat="43.2671621" lon="-5.9801109">
<ele>467.25</ele>
<time>2020-07-12T10:35:57.000Z</time>
</trkpt>
<trkpt lat="43.2670931" lon="-5.9798780">
<ele>467.95</ele>
<time>2020-07-12T10:36:14.000Z</time>
</trkpt>
<trkpt lat="43.2670769" lon="-5.9796304">
<ele>469.94</ele>
<time>2020-07-12T10:36:39.000Z</time>
</trkpt>
<trkpt lat="43.2670797" lon="-5.9793724">
<ele>475.25</ele>
<time>2020-07-12T10:36:57.000Z</time>
</trkpt>
<trkpt lat="43.2670631" lon="-5.9791149">
<ele>479.25</ele>
<time>2020-07-12T10:37:16.000Z</time>
</trkpt>
<trkpt lat="43.2670964" lon="-5.9788617">
<ele>480.46</ele>
<time>2020-07-12T10:37:36.000Z</time>
</trkpt>
<trkpt lat="43.2670989" lon="-5.9786094">
<ele>476.22</ele>
<time>2020-07-12T10:38:00.000Z</time>
</trkpt>
<trkpt lat="43.2670796" lon="-5.9783622">
<ele>474.26</ele>
<time>2020-07-12T10:38:28.000Z</time>
</trkpt>
<trkpt lat="43.2670560" lon="-5.9781092">
<ele>471.94</ele>
<time>2020-07-12T10:39:02.000Z</time>
</trkpt>
<trkpt lat="43.2669997" lon="-5.9778732">
<ele>480.94</ele>
<time>2020-07-12T10:39:24.000Z</time>
</trkpt>
<trkpt lat="43.2670182" lon="-5.9776196">
<ele>483.16</ele>
<time>2020-07-12T10:39:49.000Z</time>
</trkpt>
<trkpt lat="43.2669144" lon="-5.9774164">
<ele>491.86</ele>
<time>2020-07-12T10:40:22.000Z</time>
</trkpt>
<trkpt lat="43.2667700" lon="-5.9772490">
<ele>492.24</ele>
<time>2020-07-12T10:40:42.000Z</time>
</trkpt>
<trkpt lat="43.2666771" lon="-5.9770287">
<ele>493.52</ele>
<time>2020-07-12T10:41:05.000Z</time>
</trkpt>
<trkpt lat="43.2666302" lon="-5.9767730">
<ele>494.25</ele>
<time>2020-07-12T10:41:27.000Z</time>
</trkpt>
<trkpt lat="43.2666835" lon="-5.9765314">
<ele>494.95</ele>
<time>2020-07-12T10:41:43.000Z</time>
</trkpt>
<trkpt lat="43.2667793" lon="-5.9763115">
<ele>494.55</ele>
<time>2020-07-12T10:41:55.000Z</time>
</trkpt>
<trkpt lat="43.2668837" lon="-5.9761035">
<ele>492.32</ele>
<time>2020-07-12T10:42:06.000Z</time>
</trkpt>
<trkpt lat="43.2668694" lon="-5.9758331">
<ele>492.27</ele>
<time>2020-07-12T10:42:17.000Z</time>
</trkpt>
<trkpt lat="43.2668737" lon="-5.9755788">
<ele>491.16</ele>
<time>2020-07-12T10:42:32.000Z</time>
</trkpt>
<trkpt lat="43.2668602" lon="-5.9753195">
<ele>491.25</ele>
<time>2020-07-12T10:42:47.000Z</time>
</trkpt>
<trkpt lat="43.2668134" lon="-5.9750788">
<ele>492.25</ele>
<time>2020-07-12T10:43:01.000Z</time>
</trkpt>
<trkpt lat="43.2667437" lon="-5.9748432">
<ele>496.22</ele>
<time>2020-07-12T10:43:17.000Z</time>
</trkpt>
<trkpt lat="43.2666832" lon="-5.9746038">
<ele>494.95</ele>
<time>2020-07-12T10:43:34.000Z</time>
</trkpt>
<trkpt lat="43.2666383" lon="-5.9743448">
<ele>498.95</ele>
<time>2020-07-12T10:43:54.000Z</time>
</trkpt>
<trkpt lat="43.2664763" lon="-5.9742039">
<ele>505.25</ele>
<time>2020-07-12T10:44:21.000Z</time>
</trkpt>
<trkpt lat="43.2663171" lon="-5.9740760">
<ele>505.25</ele>
<time>2020-07-12T10:44:46.000Z</time>
</trkpt>
<trkpt lat="43.2661246" lon="-5.9740588">
<ele>510.24</ele>
<time>2020-07-12T10:45:10.000Z</time>
</trkpt>
<trkpt lat="43.2659447" lon="-5.9740608">
<ele>511.24</ele>
<time>2020-07-12T10:45:33.000Z</time>
</trkpt>
<trkpt lat="43.2657531" lon="-5.9740766">
<ele>514.94</ele>
<time>2020-07-12T10:45:55.000Z</time>
</trkpt>
<trkpt lat="43.2655723" lon="-5.9740166">
<ele>514.25</ele>
<time>2020-07-12T10:46:10.000Z</time>
</trkpt>
<trkpt lat="43.2654114" lon="-5.9738898">
<ele>512.19</ele>
<time>2020-07-12T10:46:23.000Z</time>
</trkpt>
<trkpt lat="43.2652397" lon="-5.9737877">
<ele>515.16</ele>
<time>2020-07-12T10:46:38.000Z</time>
</trkpt>
<trkpt lat="43.2650553" lon="-5.9737350">
<ele>514.55</ele>
<time>2020-07-12T10:46:53.000Z</time>
</trkpt>
<trkpt lat="43.2648801" lon="-5.9736226">
<ele>514.25</ele>
<time>2020-07-12T10:47:07.000Z</time>
</trkpt>
<trkpt lat="43.2647822" lon="-5.9734140">
<ele>513.04</ele>
<time>2020-07-12T10:47:29.000Z</time>
</trkpt>
<trkpt lat="43.2646017" lon="-5.9734096">
<ele>517.98</ele>
<time>2020-07-12T10:48:26.000Z</time>
</trkpt>
<trkpt lat="43.2644218" lon="-5.9734801">
<ele>522.16</ele>
<time>2020-07-12T10:48:46.000Z</time>
</trkpt>
<trkpt lat="43.2642484" lon="-5.9734015">
<ele>525.27</ele>
<time>2020-07-12T10:49:07.000Z</time>
</trkpt>
<trkpt lat="43.2640632" lon="-5.9733598">
<ele>529.92</ele>
<time>2020-07-12T10:49:34.000Z</time>
</trkpt>
<trkpt lat="43.2638783" lon="-5.9733499">
<ele>540.25</ele>
<time>2020-07-12T10:50:25.000Z</time>
</trkpt>
<trkpt lat="43.2636955" lon="-5.9732416">
<ele>548.55</ele>
<time>2020-07-12T10:50:52.000Z</time>
</trkpt>
<trkpt lat="43.2635647" lon="-5.9730662">
<ele>545.26</ele>
<time>2020-07-12T10:51:10.000Z</time>
</trkpt>
<trkpt lat="43.2634683" lon="-5.9728538">
<ele>541.49</ele>
<time>2020-07-12T10:51:27.000Z</time>
</trkpt>
<trkpt lat="43.2633305" lon="-5.9726702">
<ele>537.26</ele>
<time>2020-07-12T10:51:43.000Z</time>
</trkpt>
<trkpt lat="43.2631775" lon="-5.9725263">
<ele>528.58</ele>
<time>2020-07-12T10:52:05.000Z</time>
</trkpt>
<trkpt lat="43.2630089" lon="-5.9724155">
<ele>526.92</ele>
<time>2020-07-12T10:52:20.000Z</time>
</trkpt>
<trkpt lat="43.2630880" lon="-5.9721756">
<ele>528.25</ele>
<time>2020-07-12T10:52:42.000Z</time>
</trkpt>
<trkpt lat="43.2632529" lon="-5.9720421">
<ele>532.24</ele>
<time>2020-07-12T10:52:59.000Z</time>
</trkpt>
<trkpt lat="43.2634317" lon="-5.9720115">
<ele>529.94</ele>
<time>2020-07-12T10:53:13.000Z</time>
</trkpt>
<trkpt lat="43.2636179" lon="-5.9720276">
<ele>526.56</ele>
<time>2020-07-12T10:53:26.000Z</time>
</trkpt>
<trkpt lat="43.2637994" lon="-5.9720224">
<ele>526.25</ele>
<time>2020-07-12T10:53:47.000Z</time>
</trkpt>
<trkpt lat="43.2639789" lon="-5.9719637">
<ele>527.15</ele>
<time>2020-07-12T10:54:05.000Z</time>
</trkpt>
<trkpt lat="43.2641288" lon="-5.9718213">
<ele>527.48</ele>
<time>2020-07-12T10:54:26.000Z</time>
</trkpt>
<trkpt lat="43.2643010" lon="-5.9717398">
<ele>531.22</ele>
<time>2020-07-12T10:54:45.000Z</time>
</trkpt>
<trkpt lat="43.2644883" lon="-5.9717597">
<ele>536.25</ele>
<time>2020-07-12T10:55:09.000Z</time>
</trkpt>
<trkpt lat="43.2646725" lon="-5.9717343">
<ele>538.95</ele>
<time>2020-07-12T10:55:28.000Z</time>
</trkpt>
<trkpt lat="43.2648520" lon="-5.9716862">
<ele>540.46</ele>
<time>2020-07-12T10:55:47.000Z</time>
</trkpt>
<trkpt lat="43.2650319" lon="-5.9716171">
<ele>541.25</ele>
<time>2020-07-12T10:56:06.000Z</time>
</trkpt>
<trkpt lat="43.2652011" lon="-5.9715171">
<ele>544.24</ele>
<time>2020-07-12T10:56:26.000Z</time>
</trkpt>
<trkpt lat="43.2653887" lon="-5.9715161">
<ele>547.95</ele>
<time>2020-07-12T10:56:43.000Z</time>
</trkpt>
<trkpt lat="43.2655660" lon="-5.9714279">
<ele>548.18</ele>
<time>2020-07-12T10:56:57.000Z</time>
</trkpt>
<trkpt lat="43.2657055" lon="-5.9712604">
<ele>553.15</ele>
<time>2020-07-12T10:57:17.000Z</time>
</trkpt>
<trkpt lat="43.2658012" lon="-5.9710465">
<ele>556.25</ele>
<time>2020-07-12T10:57:34.000Z</time>
</trkpt>
<trkpt lat="43.2659189" lon="-5.9708573">
<ele>557.25</ele>
<time>2020-07-12T10:57:50.000Z</time>
</trkpt>
<trkpt lat="43.2660495" lon="-5.9706833">
<ele>554.26</ele>
<time>2020-07-12T10:58:09.000Z</time>
</trkpt>
<trkpt lat="43.2661939" lon="-5.9705162">
<ele>555.16</ele>
<time>2020-07-12T10:58:25.000Z</time>
</trkpt>
<trkpt lat="43.2663482" lon="-5.9703744">
<ele>556.92</ele>
<time>2020-07-12T10:58:48.000Z</time>
</trkpt>
<trkpt lat="43.2664653" lon="-5.9701800">
<ele>560.22</ele>
<time>2020-07-12T10:59:08.000Z</time>
</trkpt>
<trkpt lat="43.2665338" lon="-5.9699427">
<ele>565.25</ele>
<time>2020-07-12T10:59:47.000Z</time>
</trkpt>
<trkpt lat="43.2665772" lon="-5.9696944">
<ele>568.31</ele>
<time>2020-07-12T11:00:10.000Z</time>
</trkpt>
<trkpt lat="43.2665610" lon="-5.9694453">
<ele>570.25</ele>
<time>2020-07-12T11:00:25.000Z</time>
</trkpt>
<trkpt lat="43.2665248" lon="-5.9692029">
<ele>566.34</ele>
<time>2020-07-12T11:00:40.000Z</time>
</trkpt>
<trkpt lat="43.2664848" lon="-5.9689617">
<ele>566.24</ele>
<time>2020-07-12T11:00:57.000Z</time>
</trkpt>
<trkpt lat="43.2664239" lon="-5.9687213">
<ele>566.36</ele>
<time>2020-07-12T11:01:16.000Z</time>
</trkpt>
<trkpt lat="43.2663929" lon="-5.9684771">
<ele>567.22</ele>
<time>2020-07-12T11:01:35.000Z</time>
</trkpt>
<trkpt lat="43.2663845" lon="-5.9682259">
<ele>564.58</ele>
<time>2020-07-12T11:01:49.000Z</time>
</trkpt>
<trkpt lat="43.2663240" lon="-5.9679876">
<ele>562.36</ele>
<time>2020-07-12T11:02:07.000Z</time>
</trkpt>
<trkpt lat="43.2662692" lon="-5.9677409">
<ele>562.26</ele>
<time>2020-07-12T11:02:24.000Z</time>
</trkpt>
<trkpt lat="43.2661596" lon="-5.9675387">
<ele>563.95</ele>
<time>2020-07-12T11:02:43.000Z</time>
</trkpt>
<trkpt lat="43.2660372" lon="-5.9673356">
<ele>565.54</ele>
<time>2020-07-12T11:02:58.000Z</time>
</trkpt>
<trkpt lat="43.2661905" lon="-5.9671984">
<ele>559.35</ele>
<time>2020-07-12T11:03:15.000Z</time>
</trkpt>
<trkpt lat="43.2663704" lon="-5.9672085">
<ele>554.34</ele>
<time>2020-07-12T11:03:38.000Z</time>
</trkpt>
<trkpt lat="43.2665573" lon="-5.9671911">
<ele>553.25</ele>
<time>2020-07-12T11:03:55.000Z</time>
</trkpt>
<trkpt lat="43.2667370" lon="-5.9672080">
<ele>551.25</ele>
<time>2020-07-12T11:04:11.000Z</time>
</trkpt>
<trkpt lat="43.2669152" lon="-5.9672655">
<ele>549.23</ele>
<time>2020-07-12T11:04:24.000Z</time>
</trkpt>
<trkpt lat="43.2670980" lon="-5.9673213">
<ele>551.95</ele>
<time>2020-07-12T11:04:39.000Z</time>
</trkpt>
<trkpt lat="43.2672841" lon="-5.9673598">
<ele>552.25</ele>
<time>2020-07-12T11:04:57.000Z</time>
</trkpt>
<trkpt lat="43.2674607" lon="-5.9674382">
<ele>552.25</ele>
<time>2020-07-12T11:05:15.000Z</time>
</trkpt>
<trkpt lat="43.2676272" lon="-5.9675517">
<ele>556.18</ele>
<time>2020-07-12T11:05:34.000Z</time>
</trkpt>
<trkpt lat="43.2677740" lon="-5.9677060">
<ele>563.16</ele>
<time>2020-07-12T11:05:53.000Z</time>
</trkpt>
<trkpt lat="43.2679270" lon="-5.9678456">
<ele>566.22</ele>
<time>2020-07-12T11:06:09.000Z</time>
</trkpt>
<trkpt lat="43.2681005" lon="-5.9679167">
<ele>562.36</ele>
<time>2020-07-12T11:06:28.000Z</time>
</trkpt>
<trkpt lat="43.2682703" lon="-5.9678296">
<ele>560.25</ele>
<time>2020-07-12T11:11:51.000Z</time>
</trkpt>
<trkpt lat="43.2681714" lon="-5.9680700">
<ele>568.94</ele>
<time>2020-07-12T11:13:44.000Z</time>
</trkpt>
<trkpt lat="43.2681572" lon="-5.9683243">
<ele>562.35</ele>
<time>2020-07-12T11:14:45.000Z</time>
</trkpt>
<trkpt lat="43.2682355" lon="-5.9685486">
<ele>557.56</ele>
<time>2020-07-12T11:15:14.000Z</time>
</trkpt>
<trkpt lat="43.2684141" lon="-5.9684804">
<ele>552.34</ele>
<time>2020-07-12T11:15:28.000Z</time>
</trkpt>
<trkpt lat="43.2685524" lon="-5.9683217">
<ele>550.55</ele>
<time>2020-07-12T11:15:42.000Z</time>
</trkpt>
<trkpt lat="43.2687091" lon="-5.9681760">
<ele>550.16</ele>
<time>2020-07-12T11:16:01.000Z</time>
</trkpt>
<trkpt lat="43.2688828" lon="-5.9680649">
<ele>548.25</ele>
<time>2020-07-12T11:16:15.000Z</time>
</trkpt>
<trkpt lat="43.2690502" lon="-5.9679454">
<ele>549.16</ele>
<time>2020-07-12T11:16:33.000Z</time>
</trkpt>
<trkpt lat="43.2692242" lon="-5.9678529">
<ele>548.26</ele>
<time>2020-07-12T11:16:49.000Z</time>
</trkpt>
<trkpt lat="43.2693874" lon="-5.9677416">
<ele>548.28</ele>
<time>2020-07-12T11:17:04.000Z</time>
</trkpt>
<trkpt lat="43.2695659" lon="-5.9676705">
<ele>542.26</ele>
<time>2020-07-12T11:17:34.000Z</time>
</trkpt>
<trkpt lat="43.2697413" lon="-5.9676064">
<ele>540.25</ele>
<time>2020-07-12T11:17:48.000Z</time>
</trkpt>
<trkpt lat="43.2699210" lon="-5.9675014">
<ele>536.57</ele>
<time>2020-07-12T11:18:01.000Z</time>
</trkpt>
<trkpt lat="43.2700357" lon="-5.9676986">
<ele>536.25</ele>
<time>2020-07-12T11:18:18.000Z</time>
</trkpt>
<trkpt lat="43.2700936" lon="-5.9679327">
<ele>536.46</ele>
<time>2020-07-12T11:18:36.000Z</time>
</trkpt>
<trkpt lat="43.2699937" lon="-5.9681456">
<ele>539.24</ele>
<time>2020-07-12T11:18:53.000Z</time>
</trkpt>
<trkpt lat="43.2698877" lon="-5.9683518">
<ele>540.04</ele>
<time>2020-07-12T11:19:08.000Z</time>
</trkpt>
<trkpt lat="43.2697464" lon="-5.9685212">
<ele>539.25</ele>
<time>2020-07-12T11:19:23.000Z</time>
</trkpt>
<trkpt lat="43.2697938" lon="-5.9687687">
<ele>540.25</ele>
<time>2020-07-12T11:19:45.000Z</time>
</trkpt>
<trkpt lat="43.2699681" lon="-5.9688342">
<ele>540.22</ele>
<time>2020-07-12T11:20:06.000Z</time>
</trkpt>
<trkpt lat="43.2700818" lon="-5.9686317">
<ele>551.16</ele>
<time>2020-07-12T11:20:35.000Z</time>
</trkpt>
<trkpt lat="43.2702457" lon="-5.9684979">
<ele>551.25</ele>
<time>2020-07-12T11:20:53.000Z</time>
</trkpt>
<trkpt lat="43.2704307" lon="-5.9684728">
<ele>547.28</ele>
<time>2020-07-12T11:21:09.000Z</time>
</trkpt>
<trkpt lat="43.2706193" lon="-5.9685005">
<ele>549.95</ele>
<time>2020-07-12T11:21:31.000Z</time>
</trkpt>
<trkpt lat="43.2707841" lon="-5.9683728">
<ele>550.85</ele>
<time>2020-07-12T11:21:48.000Z</time>
</trkpt>
<trkpt lat="43.2708717" lon="-5.9681395">
<ele>552.25</ele>
<time>2020-07-12T11:22:04.000Z</time>
</trkpt>
<trkpt lat="43.2709965" lon="-5.9679600">
<ele>554.52</ele>
<time>2020-07-12T11:22:20.000Z</time>
</trkpt>
<trkpt lat="43.2711634" lon="-5.9678340">
<ele>557.16</ele>
<time>2020-07-12T11:22:40.000Z</time>
</trkpt>
<trkpt lat="43.2713403" lon="-5.9677342">
<ele>557.22</ele>
<time>2020-07-12T11:23:03.000Z</time>
</trkpt>
<trkpt lat="43.2714939" lon="-5.9675793">
<ele>560.16</ele>
<time>2020-07-12T11:23:32.000Z</time>
</trkpt>
<trkpt lat="43.2716518" lon="-5.9677002">
<ele>569.13</ele>
<time>2020-07-12T11:23:57.000Z</time>
</trkpt>
<trkpt lat="43.2717919" lon="-5.9675289">
<ele>573.25</ele>
<time>2020-07-12T11:24:16.000Z</time>
</trkpt>
<trkpt lat="43.2719177" lon="-5.9673425">
<ele>578.34</ele>
<time>2020-07-12T11:24:36.000Z</time>
</trkpt>
<trkpt lat="43.2720539" lon="-5.9675073">
<ele>583.16</ele>
<time>2020-07-12T11:25:11.000Z</time>
</trkpt>
<trkpt lat="43.2721328" lon="-5.9677423">
<ele>586.18</ele>
<time>2020-07-12T11:25:29.000Z</time>
</trkpt>
<trkpt lat="43.2722422" lon="-5.9679455">
<ele>590.22</ele>
<time>2020-07-12T11:25:45.000Z</time>
</trkpt>
<trkpt lat="43.2724261" lon="-5.9679393">
<ele>592.95</ele>
<time>2020-07-12T11:26:08.000Z</time>
</trkpt>
<trkpt lat="43.2724899" lon="-5.9681712">
<ele>596.24</ele>
<time>2020-07-12T11:26:23.000Z</time>
</trkpt>
<trkpt lat="43.2725344" lon="-5.9684238">
<ele>603.16</ele>
<time>2020-07-12T11:26:39.000Z</time>
</trkpt>
<trkpt lat="43.2725814" lon="-5.9686680">
<ele>607.22</ele>
<time>2020-07-12T11:26:55.000Z</time>
</trkpt>
<trkpt lat="43.2725812" lon="-5.9689161">
<ele>605.26</ele>
<time>2020-07-12T11:27:08.000Z</time>
</trkpt>
<trkpt lat="43.2725699" lon="-5.9691785">
<ele>605.96</ele>
<time>2020-07-12T11:27:23.000Z</time>
</trkpt>
<trkpt lat="43.2725514" lon="-5.9694427">
<ele>606.25</ele>
<time>2020-07-12T11:27:38.000Z</time>
</trkpt>
<trkpt lat="43.2725542" lon="-5.9697012">
<ele>609.22</ele>
<time>2020-07-12T11:27:53.000Z</time>
</trkpt>
<trkpt lat="43.2725136" lon="-5.9699496">
<ele>609.01</ele>
<time>2020-07-12T11:28:09.000Z</time>
</trkpt>
<trkpt lat="43.2724864" lon="-5.9701939">
<ele>610.25</ele>
<time>2020-07-12T11:28:25.000Z</time>
</trkpt>
<trkpt lat="43.2724303" lon="-5.9704327">
<ele>607.34</ele>
<time>2020-07-12T11:28:44.000Z</time>
</trkpt>
<trkpt lat="43.2723724" lon="-5.9706885">
<ele>609.16</ele>
<time>2020-07-12T11:29:00.000Z</time>
</trkpt>
<trkpt lat="43.2722538" lon="-5.9708830">
<ele>612.24</ele>
<time>2020-07-12T11:29:14.000Z</time>
</trkpt>
<trkpt lat="43.2721438" lon="-5.9710980">
<ele>613.92</ele>
<time>2020-07-12T11:29:29.000Z</time>
</trkpt>
<trkpt lat="43.2722012" lon="-5.9713329">
<ele>614.53</ele>
<time>2020-07-12T11:30:00.000Z</time>
</trkpt>
<trkpt lat="43.2723773" lon="-5.9714108">
<ele>615.32</ele>
<time>2020-07-12T11:30:17.000Z</time>
</trkpt>
<trkpt lat="43.2725531" lon="-5.9713537">
<ele>614.25</ele>
<time>2020-07-12T11:30:32.000Z</time>
</trkpt>
<trkpt lat="43.2726960" lon="-5.9712008">
<ele>618.21</ele>
<time>2020-07-12T11:30:47.000Z</time>
</trkpt>
<trkpt lat="43.2727672" lon="-5.9709724">
<ele>622.25</ele>
<time>2020-07-12T11:31:12.000Z</time>
</trkpt>
<trkpt lat="43.2728286" lon="-5.9707383">
<ele>627.13</ele>
<time>2020-07-12T11:31:29.000Z</time>
</trkpt>
<trkpt lat="43.2729333" lon="-5.9705226">
<ele>630.24</ele>
<time>2020-07-12T11:31:48.000Z</time>
</trkpt>
<trkpt lat="43.2730509" lon="-5.9703275">
<ele>633.25</ele>
<time>2020-07-12T11:32:07.000Z</time>
</trkpt>
<trkpt lat="43.2731774" lon="-5.9701272">
<ele>631.04</ele>
<time>2020-07-12T11:32:30.000Z</time>
</trkpt>
<trkpt lat="43.2733312" lon="-5.9699954">
<ele>631.25</ele>
<time>2020-07-12T11:32:48.000Z</time>
</trkpt>
<trkpt lat="43.2734807" lon="-5.9698312">
<ele>634.25</ele>
<time>2020-07-12T11:33:04.000Z</time>
</trkpt>
<trkpt lat="43.2736460" lon="-5.9699581">
<ele>639.15</ele>
<time>2020-07-12T11:33:21.000Z</time>
</trkpt>
<trkpt lat="43.2738120" lon="-5.9700853">
<ele>641.25</ele>
<time>2020-07-12T11:33:41.000Z</time>
</trkpt>
<trkpt lat="43.2739845" lon="-5.9701850">
<ele>640.25</ele>
<time>2020-07-12T11:33:58.000Z</time>
</trkpt>
<trkpt lat="43.2741570" lon="-5.9702612">
<ele>638.34</ele>
<time>2020-07-12T11:34:14.000Z</time>
</trkpt>
<trkpt lat="43.2743302" lon="-5.9703435">
<ele>635.04</ele>
<time>2020-07-12T11:34:29.000Z</time>
</trkpt>
<trkpt lat="43.2745180" lon="-5.9703796">
<ele>629.64</ele>
<time>2020-07-12T11:34:46.000Z</time>
</trkpt>
<trkpt lat="43.2747042" lon="-5.9703673">
<ele>629.25</ele>
<time>2020-07-12T11:34:59.000Z</time>
</trkpt>
<trkpt lat="43.2748874" lon="-5.9703295">
<ele>626.25</ele>
<time>2020-07-12T11:35:14.000Z</time>
</trkpt>
<trkpt lat="43.2750830" lon="-5.9703360">
<ele>626.24</ele>
<time>2020-07-12T11:35:30.000Z</time>
</trkpt>
<trkpt lat="43.2752724" lon="-5.9703855">
<ele>624.17</ele>
<time>2020-07-12T11:35:45.000Z</time>
</trkpt>
<trkpt lat="43.2754416" lon="-5.9704879">
<ele>621.55</ele>
<time>2020-07-12T11:35:58.000Z</time>
</trkpt>
<trkpt lat="43.2755859" lon="-5.9706354">
<ele>615.35</ele>
<time>2020-07-12T11:36:14.000Z</time>
</trkpt>
<trkpt lat="43.2757520" lon="-5.9707464">
<ele>610.35</ele>
<time>2020-07-12T11:36:28.000Z</time>
</trkpt>
<trkpt lat="43.2759402" lon="-5.9707725">
<ele>604.35</ele>
<time>2020-07-12T11:36:40.000Z</time>
</trkpt>
<trkpt lat="43.2761278" lon="-5.9707813">
<ele>600.36</ele>
<time>2020-07-12T11:36:56.000Z</time>
</trkpt>
<trkpt lat="43.2763157" lon="-5.9707553">
<ele>596.26</ele>
<time>2020-07-12T11:37:11.000Z</time>
</trkpt>
<trkpt lat="43.2764917" lon="-5.9706854">
<ele>595.22</ele>
<time>2020-07-12T11:37:27.000Z</time>
</trkpt>
<trkpt lat="43.2766826" lon="-5.9706395">
<ele>595.26</ele>
<time>2020-07-12T11:37:41.000Z</time>
</trkpt>
<trkpt lat="43.2768714" lon="-5.9705872">
<ele>595.25</ele>
<time>2020-07-12T11:37:57.000Z</time>
</trkpt>
<trkpt lat="43.2770583" lon="-5.9705580">
<ele>592.25</ele>
<time>2020-07-12T11:38:11.000Z</time>
</trkpt>
<trkpt lat="43.2772417" lon="-5.9705508">
<ele>592.25</ele>
<time>2020-07-12T11:38:25.000Z</time>
</trkpt>
<trkpt lat="43.2774316" lon="-5.9705705">
<ele>592.56</ele>
<time>2020-07-12T11:38:41.000Z</time>
</trkpt>
<trkpt lat="43.2775998" lon="-5.9706590">
<ele>589.43</ele>
<time>2020-07-12T11:39:22.000Z</time>
</trkpt>
<trkpt lat="43.2777622" lon="-5.9707703">
<ele>587.34</ele>
<time>2020-07-12T11:39:37.000Z</time>
</trkpt>
<trkpt lat="43.2779266" lon="-5.9708719">
<ele>587.23</ele>
<time>2020-07-12T11:39:51.000Z</time>
</trkpt>
<trkpt lat="43.2780534" lon="-5.9710568">
<ele>586.53</ele>
<time>2020-07-12T11:40:12.000Z</time>
</trkpt>
<trkpt lat="43.2780708" lon="-5.9713101">
<ele>588.27</ele>
<time>2020-07-12T11:40:30.000Z</time>
</trkpt>
<trkpt lat="43.2781360" lon="-5.9715515">
<ele>588.25</ele>
<time>2020-07-12T11:40:46.000Z</time>
</trkpt>
<trkpt lat="43.2782010" lon="-5.9717877">
<ele>584.04</ele>
<time>2020-07-12T11:41:03.000Z</time>
</trkpt>
<trkpt lat="43.2783092" lon="-5.9720052">
<ele>582.27</ele>
<time>2020-07-12T11:41:18.000Z</time>
</trkpt>
<trkpt lat="43.2784270" lon="-5.9722027">
<ele>576.55</ele>
<time>2020-07-12T11:41:41.000Z</time>
</trkpt>
<trkpt lat="43.2785395" lon="-5.9724090">
<ele>571.55</ele>
<time>2020-07-12T11:42:05.000Z</time>
</trkpt>
<trkpt lat="43.2786892" lon="-5.9725461">
<ele>568.26</ele>
<time>2020-07-12T11:42:20.000Z</time>
</trkpt>
<trkpt lat="43.2787805" lon="-5.9727671">
<ele>564.98</ele>
<time>2020-07-12T11:42:35.000Z</time>
</trkpt>
<trkpt lat="43.2788744" lon="-5.9729951">
<ele>566.25</ele>
<time>2020-07-12T11:42:50.000Z</time>
</trkpt>
<trkpt lat="43.2789586" lon="-5.9732248">
<ele>562.58</ele>
<time>2020-07-12T11:43:06.000Z</time>
</trkpt>
<trkpt lat="43.2790336" lon="-5.9734652">
<ele>559.25</ele>
<time>2020-07-12T11:43:27.000Z</time>
</trkpt>
<trkpt lat="43.2790891" lon="-5.9737176">
<ele>555.34</ele>
<time>2020-07-12T11:43:44.000Z</time>
</trkpt>
<trkpt lat="43.2791853" lon="-5.9739381">
<ele>553.26</ele>
<time>2020-07-12T11:44:00.000Z</time>
</trkpt>
<trkpt lat="43.2792498" lon="-5.9741728">
<ele>551.34</ele>
<time>2020-07-12T11:44:16.000Z</time>
</trkpt>
<trkpt lat="43.2792996" lon="-5.9744128">
<ele>546.96</ele>
<time>2020-07-12T11:44:35.000Z</time>
</trkpt>
<trkpt lat="43.2793172" lon="-5.9746663">
<ele>544.22</ele>
<time>2020-07-12T11:44:53.000Z</time>
</trkpt>
<trkpt lat="43.2793229" lon="-5.9749168">
<ele>540.55</ele>
<time>2020-07-12T11:45:13.000Z</time>
</trkpt>
<trkpt lat="43.2793082" lon="-5.9751641">
<ele>533.64</ele>
<time>2020-07-12T11:45:33.000Z</time>
</trkpt>
<trkpt lat="43.2793124" lon="-5.9754243">
<ele>529.25</ele>
<time>2020-07-12T11:45:52.000Z</time>
</trkpt>
<trkpt lat="43.2792828" lon="-5.9756756">
<ele>524.34</ele>
<time>2020-07-12T11:46:09.000Z</time>
</trkpt>
<trkpt lat="43.2792794" lon="-5.9759246">
<ele>521.28</ele>
<time>2020-07-12T11:46:33.000Z</time>
</trkpt>
<trkpt lat="43.2792340" lon="-5.9761722">
<ele>519.23</ele>
<time>2020-07-12T11:47:00.000Z</time>
</trkpt>
<trkpt lat="43.2792511" lon="-5.9764192">
<ele>518.25</ele>
<time>2020-07-12T11:47:18.000Z</time>
</trkpt>
<trkpt lat="43.2792912" lon="-5.9766639">
<ele>509.28</ele>
<time>2020-07-12T11:47:52.000Z</time>
</trkpt>
<trkpt lat="43.2793163" lon="-5.9769233">
<ele>511.25</ele>
<time>2020-07-12T11:48:23.000Z</time>
</trkpt>
<trkpt lat="43.2793057" lon="-5.9771756">
<ele>507.98</ele>
<time>2020-07-12T11:48:40.000Z</time>
</trkpt>
<trkpt lat="43.2792693" lon="-5.9774227">
<ele>506.28</ele>
<time>2020-07-12T11:48:55.000Z</time>
</trkpt>
<trkpt lat="43.2792413" lon="-5.9776796">
<ele>501.28</ele>
<time>2020-07-12T11:49:13.000Z</time>
</trkpt>
<trkpt lat="43.2792245" lon="-5.9779446">
<ele>497.25</ele>
<time>2020-07-12T11:49:30.000Z</time>
</trkpt>
<trkpt lat="43.2791567" lon="-5.9781804">
<ele>491.28</ele>
<time>2020-07-12T11:49:46.000Z</time>
</trkpt>
<trkpt lat="43.2790855" lon="-5.9784111">
<ele>488.22</ele>
<time>2020-07-12T11:50:02.000Z</time>
</trkpt>
<trkpt lat="43.2790195" lon="-5.9786415">
<ele>487.46</ele>
<time>2020-07-12T11:50:16.000Z</time>
</trkpt>
<trkpt lat="43.2789980" lon="-5.9788881">
<ele>485.25</ele>
<time>2020-07-12T11:50:31.000Z</time>
</trkpt>
<trkpt lat="43.2790338" lon="-5.9791365">
<ele>480.19</ele>
<time>2020-07-12T11:50:49.000Z</time>
</trkpt>
<trkpt lat="43.2791051" lon="-5.9793766">
<ele>475.56</ele>
<time>2020-07-12T11:51:04.000Z</time>
</trkpt>
<trkpt lat="43.2791294" lon="-5.9796255">
<ele>473.55</ele>
<time>2020-07-12T11:51:16.000Z</time>
</trkpt>
<trkpt lat="43.2791271" lon="-5.9798771">
<ele>467.55</ele>
<time>2020-07-12T11:51:48.000Z</time>
</trkpt>
<trkpt lat="43.2791286" lon="-5.9801299">
<ele>461.35</ele>
<time>2020-07-12T11:52:13.000Z</time>
</trkpt>
<trkpt lat="43.2791498" lon="-5.9803781">
<ele>455.25</ele>
<time>2020-07-12T11:52:44.000Z</time>
</trkpt>
<trkpt lat="43.2791393" lon="-5.9806354">
<ele>451.28</ele>
<time>2020-07-12T11:53:02.000Z</time>
</trkpt>
<trkpt lat="43.2791807" lon="-5.9808817">
<ele>450.16</ele>
<time>2020-07-12T11:53:21.000Z</time>
</trkpt>
<trkpt lat="43.2791571" lon="-5.9811363">
<ele>440.64</ele>
<time>2020-07-12T11:53:55.000Z</time>
</trkpt>
<trkpt lat="43.2791563" lon="-5.9813916">
<ele>436.28</ele>
<time>2020-07-12T11:54:14.000Z</time>
</trkpt>
<trkpt lat="43.2793389" lon="-5.9814054">
<ele>432.25</ele>
<time>2020-07-12T11:54:45.000Z</time>
</trkpt>
<trkpt lat="43.2795207" lon="-5.9814586">
<ele>429.25</ele>
<time>2020-07-12T11:55:47.000Z</time>
</trkpt>
<trkpt lat="43.2797078" lon="-5.9814691">
<ele>428.26</ele>
<time>2020-07-12T11:56:01.000Z</time>
</trkpt>
<trkpt lat="43.2798958" lon="-5.9814979">
<ele>427.25</ele>
<time>2020-07-12T11:56:16.000Z</time>
</trkpt>
<trkpt lat="43.2800529" lon="-5.9813727">
<ele>424.34</ele>
<time>2020-07-12T11:57:04.000Z</time>
</trkpt>
<trkpt lat="43.2801260" lon="-5.9811414">
<ele>424.27</ele>
<time>2020-07-12T11:57:21.000Z</time>
</trkpt>
<trkpt lat="43.2802993" lon="-5.9810375">
<ele>425.25</ele>
<time>2020-07-12T11:57:41.000Z</time>
</trkpt>
<trkpt lat="43.2804798" lon="-5.9809442">
<ele>423.35</ele>
<time>2020-07-12T11:57:56.000Z</time>
</trkpt>
<trkpt lat="43.2806575" lon="-5.9808897">
<ele>422.25</ele>
<time>2020-07-12T11:58:12.000Z</time>
</trkpt>
<trkpt lat="43.2808406" lon="-5.9808620">
<ele>419.34</ele>
<time>2020-07-12T11:58:30.000Z</time>
</trkpt>
<trkpt lat="43.2810273" lon="-5.9808949">
<ele>418.97</ele>
<time>2020-07-12T11:58:48.000Z</time>
</trkpt>
<trkpt lat="43.2812182" lon="-5.9808565">
<ele>416.25</ele>
<time>2020-07-12T11:59:08.000Z</time>
</trkpt>
<trkpt lat="43.2814034" lon="-5.9808326">
<ele>411.35</ele>
<time>2020-07-12T11:59:23.000Z</time>
</trkpt>
<trkpt lat="43.2815862" lon="-5.9808805">
<ele>409.52</ele>
<time>2020-07-12T11:59:44.000Z</time>
</trkpt>
<trkpt lat="43.2817656" lon="-5.9809078">
<ele>407.04</ele>
<time>2020-07-12T12:00:01.000Z</time>
</trkpt>
<trkpt lat="43.2819487" lon="-5.9810050">
<ele>401.25</ele>
<time>2020-07-12T12:00:50.000Z</time>
</trkpt>
<trkpt lat="43.2820722" lon="-5.9811957">
<ele>398.34</ele>
<time>2020-07-12T12:01:13.000Z</time>
</trkpt>
<trkpt lat="43.2820919" lon="-5.9814512">
<ele>388.56</ele>
<time>2020-07-12T12:01:40.000Z</time>
</trkpt>
<trkpt lat="43.2820565" lon="-5.9816948">
<ele>378.26</ele>
<time>2020-07-12T12:02:07.000Z</time>
</trkpt>
<trkpt lat="43.2818766" lon="-5.9817296">
<ele>373.19</ele>
<time>2020-07-12T12:02:29.000Z</time>
</trkpt>
<trkpt lat="43.2817039" lon="-5.9818468">
<ele>373.54</ele>
<time>2020-07-12T12:02:49.000Z</time>
</trkpt>
<trkpt lat="43.2815486" lon="-5.9819732">
<ele>368.25</ele>
<time>2020-07-12T12:03:07.000Z</time>
</trkpt>
<trkpt lat="43.2813983" lon="-5.9821328">
<ele>361.58</ele>
<time>2020-07-12T12:03:29.000Z</time>
</trkpt>
<trkpt lat="43.2812758" lon="-5.9823290">
<ele>360.55</ele>
<time>2020-07-12T12:03:50.000Z</time>
</trkpt>
<trkpt lat="43.2811685" lon="-5.9825404">
<ele>358.25</ele>
<time>2020-07-12T12:04:10.000Z</time>
</trkpt>
<trkpt lat="43.2810453" lon="-5.9827371">
<ele>354.33</ele>
<time>2020-07-12T12:04:29.000Z</time>
</trkpt>
<trkpt lat="43.2809176" lon="-5.9829244">
<ele>350.25</ele>
<time>2020-07-12T12:04:49.000Z</time>
</trkpt>
<trkpt lat="43.2807851" lon="-5.9831037">
<ele>342.65</ele>
<time>2020-07-12T12:05:02.000Z</time>
</trkpt>
<trkpt lat="43.2806452" lon="-5.9832734">
<ele>341.25</ele>
<time>2020-07-12T12:05:20.000Z</time>
</trkpt>
<trkpt lat="43.2804939" lon="-5.9834162">
<ele>340.95</ele>
<time>2020-07-12T12:05:33.000Z</time>
</trkpt>
<trkpt lat="43.2803380" lon="-5.9835481">
<ele>339.25</ele>
<time>2020-07-12T12:06:43.000Z</time>
</trkpt>
<trkpt lat="43.2803547" lon="-5.9838010">
<ele>338.03</ele>
<time>2020-07-12T12:07:25.000Z</time>
</trkpt>
<trkpt lat="43.2804175" lon="-5.9840364">
<ele>332.28</ele>
<time>2020-07-12T12:07:42.000Z</time>
</trkpt>
<trkpt lat="43.2804438" lon="-5.9842876">
<ele>328.28</ele>
<time>2020-07-12T12:07:58.000Z</time>
</trkpt>
<trkpt lat="43.2804392" lon="-5.9845533">
<ele>329.52</ele>
<time>2020-07-12T12:08:12.000Z</time>
</trkpt>
<trkpt lat="43.2803678" lon="-5.9847846">
<ele>325.43</ele>
<time>2020-07-12T12:09:17.000Z</time>
</trkpt>
<trkpt lat="43.2803636" lon="-5.9850365">
<ele>327.52</ele>
<time>2020-07-12T12:09:36.000Z</time>
</trkpt>
<trkpt lat="43.2802983" lon="-5.9852796">
<ele>323.25</ele>
<time>2020-07-12T12:09:58.000Z</time>
</trkpt>
<trkpt lat="43.2803203" lon="-5.9855311">
<ele>322.22</ele>
<time>2020-07-12T12:10:17.000Z</time>
</trkpt>
<trkpt lat="43.2803402" lon="-5.9857858">
<ele>325.22</ele>
<time>2020-07-12T12:10:49.000Z</time>
</trkpt>
<trkpt lat="43.2803600" lon="-5.9860395">
<ele>328.95</ele>
<time>2020-07-12T12:11:09.000Z</time>
</trkpt>
<trkpt lat="43.2803793" lon="-5.9862917">
<ele>327.92</ele>
<time>2020-07-12T12:11:39.000Z</time>
</trkpt>
<trkpt lat="43.2803885" lon="-5.9865454">
<ele>337.16</ele>
<time>2020-07-12T12:12:01.000Z</time>
</trkpt>
<trkpt lat="43.2803132" lon="-5.9867745">
<ele>336.55</ele>
<time>2020-07-12T12:12:26.000Z</time>
</trkpt>
<trkpt lat="43.2802129" lon="-5.9869935">
<ele>333.25</ele>
<time>2020-07-12T12:13:32.000Z</time>
</trkpt>
<trkpt lat="43.2800431" lon="-5.9871417">
<ele>330.25</ele>
<time>2020-07-12T12:13:58.000Z</time>
</trkpt>
<trkpt lat="43.2798897" lon="-5.9872794">
<ele>326.98</ele>
<time>2020-07-12T12:14:16.000Z</time>
</trkpt>
<trkpt lat="43.2797351" lon="-5.9874441">
<ele>321.28</ele>
<time>2020-07-12T12:14:37.000Z</time>
</trkpt>
<trkpt lat="43.2796941" lon="-5.9876974">
<ele>310.55</ele>
<time>2020-07-12T12:15:16.000Z</time>
</trkpt>
<trkpt lat="43.2795583" lon="-5.9878621">
<ele>297.35</ele>
<time>2020-07-12T12:15:58.000Z</time>
</trkpt>
<trkpt lat="43.2796331" lon="-5.9880943">
<ele>286.55</ele>
<time>2020-07-12T12:16:42.000Z</time>
</trkpt>
<trkpt lat="43.2794849" lon="-5.9882444">
<ele>283.25</ele>
<time>2020-07-12T12:17:18.000Z</time>
</trkpt>
<trkpt lat="43.2793024" lon="-5.9882213">
<ele>282.25</ele>
<time>2020-07-12T12:17:33.000Z</time>
</trkpt>
<trkpt lat="43.2791161" lon="-5.9882460">
<ele>279.25</ele>
<time>2020-07-12T12:17:50.000Z</time>
</trkpt>
<trkpt lat="43.2789415" lon="-5.9883209">
<ele>276.27</ele>
<time>2020-07-12T12:18:07.000Z</time>
</trkpt>
<trkpt lat="43.2788404" lon="-5.9885329">
<ele>274.46</ele>
<time>2020-07-12T12:18:26.000Z</time>
</trkpt>
<trkpt lat="43.2786738" lon="-5.9886270">
<ele>273.34</ele>
<time>2020-07-12T12:18:40.000Z</time>
</trkpt>
<trkpt lat="43.2784959" lon="-5.9886957">
<ele>271.26</ele>
<time>2020-07-12T12:18:55.000Z</time>
</trkpt>
<trkpt lat="43.2783131" lon="-5.9887735">
<ele>269.95</ele>
<time>2020-07-12T12:19:11.000Z</time>
</trkpt>
<trkpt lat="43.2781581" lon="-5.9889115">
<ele>269.25</ele>
<time>2020-07-12T12:19:26.000Z</time>
</trkpt>
<trkpt lat="43.2780144" lon="-5.9890606">
<ele>267.25</ele>
<time>2020-07-12T12:19:39.000Z</time>
</trkpt>
<trkpt lat="43.2778600" lon="-5.9892107">
<ele>260.28</ele>
<time>2020-07-12T12:19:55.000Z</time>
</trkpt>
<trkpt lat="43.2777024" lon="-5.9893537">
<ele>260.25</ele>
<time>2020-07-12T12:20:11.000Z</time>
</trkpt>
<trkpt lat="43.2775569" lon="-5.9895109">
<ele>256.25</ele>
<time>2020-07-12T12:20:27.000Z</time>
</trkpt>
<trkpt lat="43.2774790" lon="-5.9897347">
<ele>257.25</ele>
<time>2020-07-12T12:20:43.000Z</time>
</trkpt>
<trkpt lat="43.2773664" lon="-5.9899390">
<ele>256.34</ele>
<time>2020-07-12T12:20:58.000Z</time>
</trkpt>
<trkpt lat="43.2772201" lon="-5.9900986">
<ele>252.28</ele>
<time>2020-07-12T12:21:13.000Z</time>
</trkpt>
<trkpt lat="43.2770926" lon="-5.9902745">
<ele>251.25</ele>
<time>2020-07-12T12:21:29.000Z</time>
</trkpt>
<trkpt lat="43.2769369" lon="-5.9904076">
<ele>248.25</ele>
<time>2020-07-12T12:21:44.000Z</time>
</trkpt>
<trkpt lat="43.2768065" lon="-5.9905787">
<ele>245.34</ele>
<time>2020-07-12T12:22:00.000Z</time>
</trkpt>
<trkpt lat="43.2766726" lon="-5.9907604">
<ele>240.26</ele>
<time>2020-07-12T12:22:14.000Z</time>
</trkpt>
<trkpt lat="43.2765636" lon="-5.9909585">
<ele>236.55</ele>
<time>2020-07-12T12:22:33.000Z</time>
</trkpt>
<trkpt lat="43.2764461" lon="-5.9911528">
<ele>234.28</ele>
<time>2020-07-12T12:22:49.000Z</time>
</trkpt>
<trkpt lat="43.2763661" lon="-5.9913757">
<ele>233.25</ele>
<time>2020-07-12T12:23:04.000Z</time>
</trkpt>
<trkpt lat="43.2762771" lon="-5.9916047">
<ele>230.25</ele>
<time>2020-07-12T12:23:19.000Z</time>
</trkpt>
<trkpt lat="43.2762109" lon="-5.9918373">
<ele>229.22</ele>
<time>2020-07-12T12:23:35.000Z</time>
</trkpt>
<trkpt lat="43.2761079" lon="-5.9920573">
<ele>226.95</ele>
<time>2020-07-12T12:23:50.000Z</time>
</trkpt>
<trkpt lat="43.2759936" lon="-5.9922556">
<ele>225.34</ele>
<time>2020-07-12T12:24:06.000Z</time>
</trkpt>
<trkpt lat="43.2758586" lon="-5.9924382">
<ele>223.34</ele>
<time>2020-07-12T12:24:19.000Z</time>
</trkpt>
<trkpt lat="43.2756993" lon="-5.9925574">
<ele>216.28</ele>
<time>2020-07-12T12:24:32.000Z</time>
</trkpt>
<trkpt lat="43.2755776" lon="-5.9927596">
<ele>217.25</ele>
<time>2020-07-12T12:24:51.000Z</time>
</trkpt>
<trkpt lat="43.2754424" lon="-5.9929446">
<ele>217.24</ele>
<time>2020-07-12T12:25:06.000Z</time>
</trkpt>
<trkpt lat="43.2753252" lon="-5.9931542">
<ele>213.58</ele>
<time>2020-07-12T12:25:19.000Z</time>
</trkpt>
<trkpt lat="43.2751660" lon="-5.9933014">
<ele>211.25</ele>
<time>2020-07-12T12:25:32.000Z</time>
</trkpt>
<trkpt lat="43.2750360" lon="-5.9934730">
<ele>206.34</ele>
<time>2020-07-12T12:25:49.000Z</time>
</trkpt>
<trkpt lat="43.2748708" lon="-5.9936210">
<ele>202.25</ele>
<time>2020-07-12T12:26:08.000Z</time>
</trkpt>
<trkpt lat="43.2747481" lon="-5.9938056">
<ele>195.28</ele>
<time>2020-07-12T12:26:28.000Z</time>
</trkpt>
<trkpt lat="43.2746177" lon="-5.9939791">
<ele>190.34</ele>
<time>2020-07-12T12:26:49.000Z</time>
</trkpt>
</trkseg>
</trk>
</gpx>
